This is the latest recevied weather packets stored in our database for station/object K5NOC-12. If no packets are shown the sender has not sent any weather packets the latest 10 day(s).
| Time | Temp. | Humidity | Pressure | Rain* | Wind** | Luminosity | Snow |
|---|---|---|---|---|---|---|---|
| 1787951029 | 32.78° C | 36% | 1021 hPa | 0 mm | - | - | - |
| 1787950129 | 32.22° C | 37% | 1021.4 hPa | 0 mm | - | - | - |
| 1787949229 | 31.67° C | 40% | 1021.7 hPa | 0 mm | - | - | - |
| 1787948329 | 31.67° C | 41% | 1021.9 hPa | 0 mm | - | - | - |
| 1787947429 | 31.11° C | 43% | 1022.1 hPa | 0 mm | - | - | - |
| 1787946529 | 30.56° C | 43% | 1022.3 hPa | 0 mm | - | - | - |
| 1787945629 | 30.56° C | 43% | 1022.5 hPa | 0 mm | - | - | - |
| 1787944729 | 30.56° C | 46% | 1022.7 hPa | 0 mm | - | - | - |
| 1787943828 | 30° C | 45% | 1022.9 hPa | 0 mm | - | - | - |
| 1787942928 | 29.44° C | 48% | 1023.1 hPa | 0 mm | - | - | - |
| 1787942028 | 30° C | 48% | 1023.2 hPa | 0 mm | - | - | - |
| 1787941128 | 30° C | 44% | 1023.3 hPa | 0 mm | - | - | - |
| 1787940228 | 30.56° C | 44% | 1023.3 hPa | 0 mm | - | - | - |
| 1787939328 | 30.56° C | 44% | 1023.3 hPa | 0 mm | - | - | - |
| 1787938428 | 30° C | 46% | 1023.5 hPa | 0 mm | - | - | - |
| 1787937528 | 31.11° C | 44% | 1023.5 hPa | 0 mm | - | - | - |
| 1787936628 | 30.56° C | 45% | 1023.5 hPa | 0 mm | - | - | - |
| 1787935728 | 29.44° C | 43% | 1023.6 hPa | 0 mm | - | - | - |
| 1787934827 | 27.22° C | 48% | 1023.8 hPa | 0 mm | - | - | - |
| 1787933927 | 26.11° C | 54% | 1023.9 hPa | 0 mm | - | - | - |
| 1787933027 | 24.44° C | 63% | 1024.2 hPa | 0 mm | - | - | - |
| 1787932127 | 23.89° C | 66% | 1024.5 hPa | 0 mm | - | - | - |
| 1787931227 | 22.78° C | 72% | 1024.3 hPa | 1.52 mm | - | - | - |
| 1787930327 | 22.22° C | 75% | 1024.6 hPa | 1.78 mm | - | - | - |
| 1787929427 | 22.22° C | 76% | 1024.6 hPa | 1.78 mm | - | - | - |
* Rain latest hour (hover to see other rain measurements)
** Current wind speed in m/s (hover to see current wind gust speed)